createdAt,value
2022-12-15T00:02:19.207Z,48.93
2022-12-15T00:05:05.039Z,44.80
2022-12-15T00:07:50.936Z,42.93
2022-12-15T00:10:36.940Z,47.17
2022-12-15T00:13:22.971Z,40.27
2022-12-15T00:16:08.987Z,45.03
2022-12-15T00:18:54.659Z,44.87
2022-12-15T00:21:40.614Z,51.73
2022-12-15T00:24:26.544Z,46.73
2022-12-15T00:27:12.428Z,47.30
2022-12-15T00:29:58.419Z,44.63
2022-12-15T00:32:44.498Z,43.53
2022-12-15T00:35:30.054Z,48.47
2022-12-15T00:38:15.982Z,53.00
2022-12-15T00:40:42.998Z,59.28
2022-12-15T00:43:11.887Z,54.27
2022-12-15T00:45:58.037Z,52.87
2022-12-15T00:48:25.051Z,47.93
2022-12-15T00:50:52.111Z,45.73
2022-12-15T00:53:41.220Z,43.60
2022-12-15T00:56:27.278Z,47.20
2022-12-15T00:59:13.381Z,51.93
2022-12-15T01:01:59.618Z,43.00
2022-12-15T01:04:45.627Z,42.97
2022-12-15T01:07:31.588Z,44.43
2022-12-15T01:10:17.632Z,48.13
2022-12-15T01:13:03.646Z,46.70
2022-12-15T01:15:49.668Z,49.78
2022-12-15T01:18:35.596Z,48.20
2022-12-15T01:21:04.867Z,49.83
2022-12-15T01:23:33.580Z,46.33
2022-12-15T01:26:01.306Z,54.20
2022-12-15T01:28:28.361Z,44.20
2022-12-15T01:30:55.558Z,59.63
2022-12-15T01:33:22.881Z,56.37
2022-12-15T01:35:56.885Z,45.67
2022-12-15T01:38:23.932Z,54.00
2022-12-15T01:40:52.061Z,44.63
2022-12-15T01:43:20.694Z,45.77
2022-12-15T01:45:49.624Z,45.00
2022-12-15T01:48:36.482Z,47.13
2022-12-15T01:51:29.784Z,48.90
2022-12-15T01:53:59.909Z,46.27
2022-12-15T01:56:30.066Z,53.38
2022-12-15T01:59:02.702Z,51.87
2022-12-15T02:01:30.052Z,54.57
2022-12-15T02:03:57.244Z,50.63
2022-12-15T02:06:25.737Z,54.17
2022-12-15T02:08:54.486Z,51.33
2022-12-15T02:11:21.478Z,50.20
2022-12-15T02:14:02.080Z,50.53
2022-12-15T02:16:29.202Z,49.90
2022-12-15T02:18:56.210Z,48.77
2022-12-15T02:21:42.132Z,54.13
2022-12-15T02:24:20.097Z,53.97
2022-12-15T02:27:05.994Z,51.77
2022-12-15T02:29:51.875Z,52.73
2022-12-15T02:32:26.763Z,58.05
2022-12-15T02:34:57.711Z,53.43
2022-12-15T02:37:35.849Z,50.87
2022-12-15T02:40:04.546Z,48.63
2022-12-15T02:42:32.788Z,52.03
2022-12-15T02:45:10.807Z,49.07
2022-12-15T02:47:49.750Z,53.43
2022-12-15T02:50:16.749Z,50.80
2022-12-15T02:52:55.221Z,49.87
2022-12-15T02:55:36.356Z,48.00
2022-12-15T02:58:03.338Z,57.70
2022-12-15T03:00:31.630Z,50.67
2022-12-15T03:02:59.107Z,52.67
2022-12-15T03:05:26.456Z,47.87
2022-12-15T03:07:54.590Z,47.80
2022-12-15T03:10:23.825Z,45.92
2022-12-15T03:12:50.876Z,55.80
2022-12-15T03:15:18.698Z,50.37
2022-12-15T03:17:45.859Z,48.53
2022-12-15T03:20:13.023Z,54.93
2022-12-15T03:22:40.133Z,57.53
2022-12-15T03:25:07.294Z,48.73
2022-12-15T03:27:35.846Z,50.17
2022-12-15T03:30:02.910Z,51.23
2022-12-15T03:32:30.384Z,48.73
2022-12-15T03:34:57.409Z,50.67
2022-12-15T03:37:24.442Z,47.03
2022-12-15T03:39:51.465Z,47.57
2022-12-15T03:42:38.463Z,48.93
2022-12-15T03:45:05.751Z,48.75
2022-12-15T03:47:32.815Z,52.00
2022-12-15T03:49:59.966Z,51.80
2022-12-15T03:52:26.994Z,51.53
2022-12-15T03:54:54.017Z,53.10
2022-12-15T03:57:21.048Z,56.07
2022-12-15T03:59:48.077Z,51.17
2022-12-15T04:02:15.360Z,54.73
2022-12-15T04:04:42.649Z,55.87
2022-12-15T04:07:09.705Z,55.10
2022-12-15T04:09:37.371Z,56.80
2022-12-15T04:12:04.624Z,59.97
2022-12-15T04:14:31.949Z,51.07
2022-12-15T04:16:59.071Z,59.80
2022-12-15T04:19:44.849Z,51.13
2022-12-15T04:22:17.644Z,53.07
2022-12-15T04:25:03.989Z,54.83
2022-12-15T04:27:49.752Z,63.10
2022-12-15T04:30:35.876Z,58.50
2022-12-15T04:33:27.635Z,59.40
2022-12-15T04:36:16.638Z,53.93
2022-12-15T04:39:02.392Z,56.93
2022-12-15T04:41:48.558Z,59.27
2022-12-15T04:44:34.559Z,58.83
2022-12-15T04:47:20.425Z,59.43
2022-12-15T04:50:06.426Z,57.80
2022-12-15T04:52:52.418Z,56.97
2022-12-15T04:55:38.262Z,55.40
2022-12-15T04:58:24.792Z,54.70
2022-12-15T05:01:11.068Z,57.07
2022-12-15T05:03:57.031Z,53.97
2022-12-15T05:06:43.050Z,59.03
2022-12-15T05:09:28.969Z,51.83
2022-12-15T05:12:14.845Z,52.93
2022-12-15T05:15:00.852Z,60.40
2022-12-15T05:17:46.641Z,56.83
2022-12-15T05:20:32.549Z,55.27
2022-12-15T05:23:18.338Z,55.97
2022-12-15T05:26:04.830Z,51.57
2022-12-15T05:28:50.648Z,61.57
2022-12-15T05:31:36.665Z,61.57
2022-12-15T05:34:05.813Z,52.63
2022-12-15T05:36:33.066Z,62.13
2022-12-15T05:39:00.107Z,56.67
2022-12-15T05:41:27.185Z,58.30
2022-12-15T05:43:54.193Z,62.50
2022-12-15T05:46:21.242Z,56.23
2022-12-15T05:48:48.343Z,56.57
2022-12-15T05:51:15.479Z,53.50
2022-12-15T05:53:43.073Z,60.03
2022-12-15T05:56:11.563Z,58.50
2022-12-15T05:58:44.890Z,57.27
2022-12-15T06:01:14.164Z,51.83
2022-12-15T06:03:41.541Z,53.33
2022-12-15T06:06:09.673Z,50.63
2022-12-15T06:08:38.197Z,56.47
2022-12-15T06:11:05.376Z,50.03
2022-12-15T06:13:34.583Z,50.70
2022-12-15T06:16:03.541Z,55.77
2022-12-15T06:18:32.814Z,61.55
2022-12-15T06:21:00.448Z,53.97
2022-12-15T06:23:29.063Z,57.70
2022-12-15T06:25:57.836Z,56.13
2022-12-15T06:28:25.023Z,53.37
2022-12-15T06:30:53.270Z,55.07
2022-12-15T06:33:21.377Z,56.00
2022-12-15T06:35:48.472Z,56.70
2022-12-15T06:38:15.820Z,53.13
2022-12-15T06:40:42.964Z,53.80
2022-12-15T06:43:09.997Z,64.57
2022-12-15T06:45:37.067Z,55.17
2022-12-15T06:48:04.136Z,53.53
2022-12-15T06:50:31.171Z,58.67
2022-12-15T06:52:59.718Z,59.13
2022-12-15T06:55:26.766Z,58.00
2022-12-15T06:57:53.786Z,56.10
2022-12-15T07:00:20.838Z,68.37
2022-12-15T07:02:48.349Z,54.47
2022-12-15T07:05:17.248Z,55.17
2022-12-15T07:07:44.272Z,54.27
2022-12-15T07:10:11.985Z,63.00
2022-12-15T07:12:39.085Z,53.03
2022-12-15T07:15:08.079Z,57.57
2022-12-15T07:17:38.193Z,51.80
2022-12-15T07:20:05.665Z,53.13
2022-12-15T07:22:32.884Z,59.33
2022-12-15T07:25:00.149Z,56.23
2022-12-15T07:27:27.459Z,57.30
2022-12-15T07:29:54.491Z,55.40
2022-12-15T07:32:21.800Z,59.63
2022-12-15T07:34:49.117Z,63.17
2022-12-15T07:37:16.921Z,56.80
2022-12-15T07:39:43.956Z,59.67
2022-12-15T07:42:10.987Z,57.03
2022-12-15T07:44:38.017Z,51.97
2022-12-15T07:47:05.117Z,55.40
2022-12-15T07:49:32.151Z,52.33
2022-12-15T07:51:59.153Z,56.10
2022-12-15T07:54:26.196Z,52.93
2022-12-15T07:56:53.311Z,55.77
2022-12-15T07:59:20.331Z,53.67
2022-12-15T08:01:47.773Z,57.27
2022-12-15T08:04:14.942Z,54.80
2022-12-15T08:06:42.018Z,48.90
2022-12-15T08:09:09.095Z,56.63
2022-12-15T08:11:36.220Z,48.40
2022-12-15T08:14:05.452Z,51.37
2022-12-15T08:16:36.485Z,52.17
2022-12-15T08:19:05.372Z,50.03
2022-12-15T08:21:33.227Z,49.40
2022-12-15T08:24:03.984Z,48.27
2022-12-15T08:26:31.787Z,46.20
2022-12-15T08:29:24.479Z,50.93
2022-12-15T08:31:49.698Z,51.43
2022-12-15T08:34:16.962Z,48.17
2022-12-15T08:36:44.032Z,55.33
2022-12-15T08:39:11.141Z,53.27
2022-12-15T08:41:38.525Z,52.47
2022-12-15T08:44:05.645Z,49.20
2022-12-15T08:46:33.835Z,48.40
2022-12-15T08:49:01.312Z,51.03
2022-12-15T08:51:29.679Z,53.03
2022-12-15T08:53:57.462Z,50.00
2022-12-15T08:56:25.282Z,45.90
2022-12-15T08:58:56.222Z,44.10
2022-12-15T09:01:24.505Z,49.10
2022-12-15T09:03:55.635Z,47.90
2022-12-15T09:06:24.404Z,47.13
2022-12-15T09:08:54.062Z,45.37
2022-12-15T09:11:21.638Z,48.47
2022-12-15T09:13:48.653Z,46.17
2022-12-15T09:16:17.166Z,44.73
2022-12-15T09:18:46.612Z,50.23
2022-12-15T09:21:14.507Z,48.60
2022-12-15T09:23:41.878Z,45.27
2022-12-15T09:26:10.047Z,43.70
2022-12-15T09:28:37.937Z,42.53
2022-12-15T09:31:06.241Z,48.45
2022-12-15T09:33:34.035Z,41.20
2022-12-15T09:36:01.383Z,40.47
2022-12-15T09:38:28.507Z,38.47
2022-12-15T09:40:56.110Z,38.87
2022-12-15T09:43:38.966Z,37.80
2022-12-15T09:46:15.442Z,44.27
2022-12-15T09:48:43.994Z,36.47
2022-12-15T09:51:13.270Z,39.70
2022-12-15T09:53:56.566Z,43.13
2022-12-15T09:56:31.755Z,36.37
2022-12-15T09:59:01.539Z,38.73
2022-12-15T10:01:33.600Z,38.63
2022-12-15T10:04:05.976Z,40.87
2022-12-15T10:06:46.065Z,42.10
2022-12-15T10:09:21.935Z,44.53
2022-12-15T10:12:02.943Z,39.17
2022-12-15T10:14:49.823Z,35.33
2022-12-15T10:17:34.897Z,39.20
2022-12-15T10:20:10.775Z,44.47
2022-12-15T10:22:38.213Z,37.73
2022-12-15T10:25:29.473Z,41.50
2022-12-15T10:28:16.163Z,41.40
2022-12-15T10:30:55.097Z,40.40
2022-12-15T10:33:24.665Z,39.57
2022-12-15T10:35:53.884Z,38.87
2022-12-15T10:38:23.864Z,36.87
2022-12-15T10:41:01.712Z,41.30
2022-12-15T10:43:30.916Z,42.50
2022-12-15T10:46:13.784Z,37.60
2022-12-15T10:48:41.605Z,41.30
2022-12-15T10:51:32.374Z,39.57
2022-12-15T10:54:03.411Z,41.27
2022-12-15T10:56:33.866Z,34.37
2022-12-15T10:59:21.639Z,36.40
2022-12-15T11:01:48.875Z,39.40
2022-12-15T11:04:28.141Z,37.40
2022-12-15T11:07:02.161Z,42.03
2022-12-15T11:09:36.995Z,39.60
2022-12-15T11:12:35.891Z,39.70
2022-12-15T11:15:02.984Z,40.80
2022-12-15T11:17:39.752Z,37.93
2022-12-15T11:20:11.132Z,40.63
2022-12-15T11:22:43.063Z,38.93
2022-12-15T11:25:16.321Z,37.13
2022-12-15T11:27:45.279Z,40.03
2022-12-15T11:30:12.319Z,42.43
2022-12-15T11:32:41.850Z,41.07
2022-12-15T11:35:16.202Z,37.70
2022-12-15T11:37:49.500Z,39.33
2022-12-15T11:40:24.164Z,38.67
2022-12-15T11:42:53.919Z,36.77
2022-12-15T11:45:42.485Z,40.90
2022-12-15T11:48:17.156Z,42.13
2022-12-15T11:50:59.511Z,36.60
2022-12-15T11:53:45.556Z,34.77
2022-12-15T11:56:28.976Z,37.80
2022-12-15T11:59:09.437Z,39.30
2022-12-15T12:01:52.658Z,39.47
2022-12-15T12:04:25.041Z,37.00
2022-12-15T12:06:55.096Z,39.20
2022-12-15T12:09:31.022Z,41.93
2022-12-15T12:12:13.617Z,36.90
2022-12-15T12:14:40.605Z,36.67
2022-12-15T12:17:11.890Z,39.23
2022-12-15T12:19:42.072Z,39.37
2022-12-15T12:22:14.016Z,37.53
2022-12-15T12:24:44.399Z,40.30
2022-12-15T12:27:28.176Z,37.07
2022-12-15T12:30:00.388Z,39.90
2022-12-15T12:32:42.795Z,38.43
2022-12-15T12:35:31.677Z,36.93
2022-12-15T12:38:03.894Z,39.15
2022-12-15T12:40:31.617Z,37.10
2022-12-15T12:42:59.327Z,36.97
2022-12-15T12:45:30.090Z,36.60
2022-12-15T12:47:58.437Z,35.40
2022-12-15T12:50:27.700Z,33.67
2022-12-15T12:52:56.412Z,33.97
2022-12-15T12:55:24.201Z,34.37
2022-12-15T12:57:51.341Z,37.33
2022-12-15T13:00:22.887Z,32.30
2022-12-15T13:02:52.713Z,35.17
2022-12-15T13:05:22.638Z,35.83
2022-12-15T13:07:56.893Z,35.50
2022-12-15T13:10:25.261Z,30.70
2022-12-15T13:12:59.135Z,36.53
2022-12-15T13:15:29.244Z,31.90
2022-12-15T13:17:59.070Z,34.30
2022-12-15T13:20:30.258Z,33.33
2022-12-15T13:23:18.807Z,33.90
2022-12-15T13:25:51.951Z,34.97
2022-12-15T13:28:42.647Z,32.23
2022-12-15T13:31:18.784Z,38.13
2022-12-15T13:33:54.943Z,34.83
2022-12-15T13:36:37.741Z,36.30
2022-12-15T13:39:17.231Z,33.60
2022-12-15T13:42:07.477Z,36.03
2022-12-15T13:44:32.633Z,35.03
2022-12-15T13:47:13.233Z,36.50
2022-12-15T13:50:01.381Z,36.50
2022-12-15T13:55:40.107Z,36.23
2022-12-15T13:58:07.281Z,34.33
2022-12-15T14:00:34.494Z,37.37
2022-12-15T14:03:11.166Z,37.63
2022-12-15T14:05:39.170Z,34.47
2022-12-15T14:08:16.110Z,41.33
2022-12-15T14:10:45.179Z,40.60
2022-12-15T14:13:19.210Z,40.37
2022-12-15T14:15:50.908Z,40.43
2022-12-15T14:18:37.368Z,41.93
2022-12-15T14:21:08.619Z,40.60
2022-12-15T14:23:58.012Z,37.43
2022-12-15T14:26:31.669Z,37.87
2022-12-15T14:29:02.905Z,37.63
2022-12-15T14:31:30.926Z,41.33
2022-12-15T14:34:02.717Z,39.20
2022-12-15T14:36:31.751Z,37.03
2022-12-15T14:39:00.079Z,42.33
2022-12-15T14:41:28.940Z,37.83
2022-12-15T14:44:36.822Z,38.30
2022-12-15T14:47:17.282Z,37.83
2022-12-15T14:49:45.618Z,41.30
2022-12-15T14:52:23.724Z,42.70
2022-12-15T14:55:01.416Z,40.07
2022-12-15T14:57:28.404Z,37.27
2022-12-15T14:59:55.804Z,43.40
2022-12-15T15:02:23.288Z,35.63
2022-12-15T15:04:59.612Z,38.20
2022-12-15T15:07:28.763Z,43.10
2022-12-15T15:09:56.100Z,36.20
2022-12-15T15:12:24.584Z,40.77
2022-12-15T15:14:51.589Z,33.60
2022-12-15T15:17:23.644Z,36.93
2022-12-15T15:20:01.331Z,34.03
2022-12-15T15:22:45.299Z,37.70
2022-12-15T15:25:28.949Z,33.93
2022-12-15T15:28:02.945Z,35.47
2022-12-15T15:30:30.768Z,30.93
2022-12-15T15:32:58.818Z,37.97
2022-12-15T15:35:33.912Z,35.13
2022-12-15T15:38:21.414Z,35.47
2022-12-15T15:40:52.284Z,32.13
2022-12-15T15:43:19.555Z,32.60
2022-12-15T15:45:47.393Z,31.83
2022-12-15T15:48:18.183Z,29.70
2022-12-15T15:50:47.197Z,30.50
2022-12-15T15:53:17.568Z,30.07
2022-12-15T15:55:44.895Z,34.10
2022-12-15T15:58:12.951Z,26.90
2022-12-15T16:00:40.562Z,28.70
2022-12-15T16:03:08.487Z,30.63
2022-12-15T16:05:36.398Z,29.93
2022-12-15T16:08:03.754Z,28.10
2022-12-15T16:10:30.816Z,30.20
2022-12-15T16:13:00.391Z,30.57
2022-12-15T16:15:28.855Z,28.70
2022-12-15T16:17:56.230Z,26.30
2022-12-15T16:20:24.094Z,27.60
2022-12-15T16:22:55.770Z,26.00
2022-12-15T16:25:25.607Z,26.90
2022-12-15T16:27:52.687Z,26.37
2022-12-15T16:30:24.383Z,29.70
2022-12-15T16:32:51.690Z,27.30
2022-12-15T16:35:18.879Z,27.47
2022-12-15T16:37:46.735Z,27.63
2022-12-15T16:40:15.608Z,31.33
2022-12-15T16:42:42.720Z,27.50
2022-12-15T16:45:17.917Z,28.50
2022-12-15T16:47:45.618Z,30.07
2022-12-15T16:50:14.738Z,28.40
2022-12-15T16:52:42.641Z,32.30
2022-12-15T16:55:26.729Z,29.43
2022-12-15T16:57:56.429Z,39.83
2022-12-15T17:00:28.540Z,40.93
2022-12-15T17:02:56.398Z,49.33
2022-12-15T17:05:26.194Z,34.90
2022-12-15T17:07:55.808Z,28.73
2022-12-15T17:10:24.194Z,30.70
2022-12-15T17:12:52.046Z,35.07
2022-12-15T17:15:28.286Z,34.20
2022-12-15T17:17:55.749Z,37.90
2022-12-15T17:20:29.425Z,33.27
2022-12-15T17:22:59.581Z,35.33
2022-12-15T17:26:00.760Z,36.27
2022-12-15T17:28:23.116Z,52.37
2022-12-15T17:30:51.414Z,48.40
2022-12-15T17:33:19.468Z,43.10
2022-12-15T17:35:53.678Z,57.15
2022-12-15T17:38:21.424Z,62.27
2022-12-15T17:40:49.020Z,43.53
2022-12-15T17:43:17.826Z,38.13
2022-12-15T17:45:44.925Z,44.30
2022-12-15T17:48:12.646Z,47.80
2022-12-15T17:50:39.942Z,60.27
2022-12-15T17:53:07.478Z,61.67
2022-12-15T17:55:35.609Z,33.60
2022-12-15T17:58:03.295Z,37.23
2022-12-15T18:00:31.155Z,61.93
2022-12-15T18:02:59.189Z,68.47
2022-12-15T18:05:30.472Z,52.20
2022-12-15T18:07:58.659Z,38.57
2022-12-15T18:10:30.521Z,38.70
2022-12-15T18:12:57.917Z,35.87
2022-12-15T18:15:29.021Z,52.80
2022-12-15T18:17:56.882Z,59.80
2022-12-15T18:20:24.035Z,53.33
2022-12-15T18:22:51.551Z,53.90
2022-12-15T18:25:25.886Z,40.70
2022-12-15T18:27:53.902Z,39.17
2022-12-15T18:30:25.474Z,40.17
2022-12-15T18:32:55.782Z,39.70
2022-12-15T18:35:26.859Z,38.90
2022-12-15T18:37:53.939Z,41.93
2022-12-15T18:40:23.745Z,39.17
2022-12-15T18:42:50.857Z,37.53
2022-12-15T18:45:22.624Z,39.13
2022-12-15T18:47:50.118Z,40.07
2022-12-15T18:50:18.693Z,37.10
2022-12-15T18:52:45.928Z,38.03
2022-12-15T18:55:21.066Z,38.97
2022-12-15T18:57:50.036Z,41.07
2022-12-15T19:00:24.337Z,39.47
2022-12-15T19:02:52.531Z,36.43
2022-12-15T19:05:29.446Z,42.03
2022-12-15T19:07:56.517Z,42.50
2022-12-15T19:10:23.870Z,39.93
2022-12-15T19:12:55.299Z,37.77
2022-12-15T19:15:25.363Z,40.37
2022-12-15T19:18:11.269Z,42.33
2022-12-15T19:20:57.289Z,40.10
2022-12-15T19:23:24.951Z,42.73
2022-12-15T19:25:52.814Z,39.83
2022-12-15T19:28:21.199Z,36.13
2022-12-15T19:30:48.733Z,41.50
2022-12-15T19:33:16.245Z,41.40
2022-12-15T19:35:44.390Z,40.03
2022-12-15T19:38:19.019Z,36.27
2022-12-15T19:40:47.558Z,36.13
2022-12-15T19:43:17.270Z,40.40
2022-12-15T19:45:44.606Z,38.07
2022-12-15T19:48:12.576Z,41.57
2022-12-15T19:50:41.088Z,40.23
2022-12-15T19:53:21.698Z,38.73
2022-12-15T19:55:49.131Z,40.80
2022-12-15T19:58:27.123Z,38.40
2022-12-15T20:00:55.849Z,40.80
2022-12-15T20:03:23.030Z,39.67
2022-12-15T20:05:51.885Z,39.97
2022-12-15T20:08:20.856Z,43.07
2022-12-15T20:10:48.189Z,45.23
2022-12-15T20:13:15.276Z,41.90
2022-12-15T20:15:42.361Z,42.57
2022-12-15T20:18:09.633Z,40.53
2022-12-15T20:20:36.726Z,40.00
2022-12-15T20:23:26.329Z,42.93
2022-12-15T20:25:54.050Z,40.93
2022-12-15T20:28:25.639Z,39.83
2022-12-15T20:30:53.276Z,40.77
2022-12-15T20:33:20.614Z,37.50
2022-12-15T20:35:48.800Z,39.73
2022-12-15T20:38:15.857Z,45.30
2022-12-15T20:40:42.910Z,43.10
2022-12-15T20:43:16.172Z,39.20
2022-12-15T20:45:43.792Z,39.23
2022-12-15T20:48:13.592Z,37.93
2022-12-15T20:50:45.445Z,42.90
2022-12-15T20:53:17.360Z,41.10
2022-12-15T20:55:44.714Z,40.47
2022-12-15T20:58:11.963Z,41.20
2022-12-15T21:00:39.075Z,39.80
2022-12-15T21:03:18.191Z,44.00
2022-12-15T21:05:45.396Z,50.87
2022-12-15T21:08:18.027Z,43.43
2022-12-15T21:10:45.203Z,42.70
2022-12-15T21:13:29.527Z,40.67
2022-12-15T21:15:57.033Z,41.40
2022-12-15T21:21:25.403Z,43.80
2022-12-15T21:23:52.423Z,40.43
2022-12-15T21:26:22.576Z,42.50
2022-12-15T21:28:50.414Z,39.37
2022-12-15T21:31:18.944Z,43.17
2022-12-15T21:33:46.612Z,38.57
2022-12-15T21:36:14.581Z,36.37
2022-12-15T21:38:42.562Z,39.87
2022-12-15T21:41:12.908Z,34.80
2022-12-15T21:43:40.114Z,36.17
2022-12-15T21:46:14.387Z,39.73
2022-12-15T21:49:00.715Z,39.53
2022-12-15T21:51:29.142Z,40.47
2022-12-15T21:53:56.203Z,39.77
2022-12-15T21:56:23.752Z,43.47
2022-12-15T21:58:52.781Z,36.07
2022-12-15T22:01:24.199Z,40.30
2022-12-15T22:03:52.521Z,41.03
2022-12-15T22:06:20.693Z,40.83
2022-12-15T22:08:47.810Z,36.90
2022-12-15T22:11:25.693Z,40.37
2022-12-15T22:13:55.033Z,38.40
2022-12-15T22:16:22.394Z,42.33
2022-12-15T22:18:50.807Z,40.60
2022-12-15T22:21:18.751Z,42.10
2022-12-15T22:23:47.820Z,41.90
2022-12-15T22:26:31.346Z,43.90
2022-12-15T22:29:01.092Z,42.50
2022-12-15T22:31:28.246Z,44.33
2022-12-15T22:33:55.321Z,41.50
2022-12-15T22:36:22.400Z,43.27
2022-12-15T22:38:49.417Z,45.97
2022-12-15T22:41:21.370Z,48.92
2022-12-15T22:43:56.085Z,40.07
2022-12-15T22:46:24.871Z,45.00
2022-12-15T22:48:52.309Z,43.67
2022-12-15T22:51:19.851Z,43.70
2022-12-15T22:53:47.026Z,43.83
2022-12-15T22:56:21.801Z,46.87
2022-12-15T22:58:50.240Z,47.07
2022-12-15T23:01:19.035Z,45.23
2022-12-15T23:03:46.166Z,41.13
2022-12-15T23:06:13.217Z,46.27
2022-12-15T23:08:40.242Z,45.53
2022-12-15T23:11:25.732Z,43.47
2022-12-15T23:13:52.736Z,47.43
2022-12-15T23:16:22.205Z,44.20
2022-12-15T23:18:50.569Z,43.13
2022-12-15T23:21:19.346Z,47.65
2022-12-15T23:23:46.612Z,44.00
2022-12-15T23:26:14.588Z,45.97
2022-12-15T23:28:41.958Z,44.37
2022-12-15T23:31:09.128Z,47.10
2022-12-15T23:33:36.496Z,45.00
2022-12-15T23:36:03.560Z,47.63
2022-12-15T23:38:31.156Z,44.13
2022-12-15T23:40:58.610Z,44.10
2022-12-15T23:43:26.620Z,47.83
2022-12-15T23:46:00.517Z,43.87
2022-12-15T23:48:34.952Z,47.07
2022-12-15T23:51:06.358Z,45.63
2022-12-15T23:53:34.289Z,44.80
2022-12-15T23:56:18.525Z,48.38
2022-12-15T23:58:46.318Z,46.07
